CYED/YED METAR and TAF weather

Enter ICAO airport designator
Station Type Date Time Source
CYED METAR 2020/01/18 21:00 UTC NOAA

CYED 182100Z AUTO 03002KT 9SM CLR M26/M31 A3044 RMK SLP390


Station Type Date Time Source
CYED Decoded METAR 2020/01/18 21:00 UTC NOAA

Edmonton Namao Alta., Canada (CYED) 53-40N 113-28W 688M
Jan 18, 2020 - 04:00 PM EST / 2020.01.18 2100 UTC
Wind: from the NNE (030 degrees) at 2 MPH (2 KT):0
Visibility: 9 mile(s):0
Sky conditions: clear
Temperature: -14 F (-26 C)
Dew Point: -23 F (-31 C)
Relative Humidity: 62%
Pressure (altimeter): 30.44 in. Hg (1030 hPa)
ob: CYED 182100Z AUTO 03002KT 9SM CLR M26/M31 A3044 RMK SLP390
cycle: 21

Station Type Date Time Source
CYED TAF 2020/01/18 00:36 UTC NOAA

TAF
AMD TAF
AMD CYED 180535Z 1800/1812 FCST CNCLD DUE END OF FLYING PROGRAM
RMK NXT FCST WILL BE ISSUED AT 201215Z

Example: see airport list